Time,TemperatureF,DewpointF,PressureIn,WindDirection,WindDirectionDegrees,WindSpeedMPH,WindSpeedGustMPH,Humidity,HourlyPrecipIn,Conditions,Clouds,dailyrainin,SoftwareType,DateUTC
2013-08-10 00:01:00,46.1,45.0,28.07,NNW,341,0.0,0.0,96,0.00,,---,0.02,VWS V14.01,2013-08-10 05:01:00,
2013-08-10 00:06:00,46.0,44.9,28.08,NNW,341,0.0,0.0,96,0.00,,---,0.00,VWS V14.01,2013-08-10 05:06:00,
2013-08-10 00:11:00,46.0,44.9,28.08,NNW,341,0.0,0.0,96,0.00,,---,0.00,VWS V14.01,2013-08-10 05:11:00,
2013-08-10 00:17:00,45.9,44.8,28.08,NNW,341,0.0,0.0,96,0.00,,---,0.00,VWS V14.01,2013-08-10 05:17:00,
2013-08-10 00:22:00,45.8,44.7,28.08,NNW,341,0.0,0.0,96,0.00,,---,0.00,VWS V14.01,2013-08-10 05:22:00,
2013-08-10 00:27:00,45.7,44.6,28.08,NNW,341,0.0,0.0,96,0.00,,---,0.00,VWS V14.01,2013-08-10 05:27:00,
2013-08-10 00:32:00,45.6,44.5,28.08,NNW,341,0.0,0.0,96,0.00,,---,0.00,VWS V14.01,2013-08-10 05:32:00,
2013-08-10 00:37:00,45.6,44.5,28.08,NNW,341,0.0,0.0,96,0.00,,---,0.00,VWS V14.01,2013-08-10 05:37:00,
2013-08-10 00:42:00,45.6,44.5,28.08,NNW,341,0.0,0.0,96,0.00,,---,0.00,VWS V14.01,2013-08-10 05:42:00,
2013-08-10 00:48:00,45.7,44.6,28.09,NNW,341,0.0,0.0,96,0.00,,---,0.00,VWS V14.01,2013-08-10 05:48:00,
2013-08-10 00:53:00,45.8,44.7,28.09,NNW,341,0.0,0.0,96,0.00,,---,0.00,VWS V14.01,2013-08-10 05:53:00,
2013-08-10 00:58:00,45.6,44.5,28.09,NNW,341,0.0,0.0,96,0.00,,---,0.00,VWS V14.01,2013-08-10 05:58:00,
2013-08-10 01:03:00,45.4,44.3,28.09,NNW,341,0.0,0.0,96,0.00,,---,0.00,VWS V14.01,2013-08-10 06:03:00,
2013-08-10 01:08:00,45.1,44.0,28.09,NNW,341,0.0,0.0,96,0.00,,---,0.00,VWS V14.01,2013-08-10 06:08:00,
2013-08-10 01:14:00,45.0,43.9,28.09,NNW,341,0.0,0.0,96,0.00,,---,0.00,VWS V14.01,2013-08-10 06:14:00,
2013-08-10 01:19:00,44.7,43.6,28.09,NNW,341,0.0,0.0,96,0.00,,---,0.00,VWS V14.01,2013-08-10 06:19:00,
2013-08-10 01:24:00,44.7,43.6,28.09,NNW,341,0.0,0.0,96,0.00,,---,0.00,VWS V14.01,2013-08-10 06:24:00,
2013-08-10 01:29:00,44.8,44.0,28.09,NNW,341,0.0,0.0,97,0.00,,---,0.00,VWS V14.01,2013-08-10 06:29:00,
2013-08-10 01:34:00,44.6,43.8,28.09,NNW,341,0.0,0.0,97,0.00,,---,0.00,VWS V14.01,2013-08-10 06:34:00,
2013-08-10 01:40:00,44.4,43.3,28.09,NNW,341,0.0,0.0,96,0.00,,---,0.00,VWS V14.01,2013-08-10 06:40:00,
2013-08-10 01:45:00,44.2,43.1,28.09,NNW,341,0.0,0.0,96,0.00,,---,0.00,VWS V14.01,2013-08-10 06:45:00,
2013-08-10 01:50:00,44.0,43.2,28.09,NNW,341,0.0,0.0,97,0.00,,---,0.00,VWS V14.01,2013-08-10 06:50:00,
2013-08-10 01:55:00,43.8,42.7,28.09,NNW,341,0.0,0.0,96,0.00,,---,0.00,VWS V14.01,2013-08-10 06:55:00,
2013-08-10 02:00:00,43.8,42.7,28.09,NNW,341,0.0,0.0,96,0.00,,---,0.00,VWS V14.01,2013-08-10 07:00:00,
2013-08-10 02:06:00,43.7,42.9,28.09,NNW,341,0.0,0.0,97,0.00,,---,0.00,VWS V14.01,2013-08-10 07:06:00,
2013-08-10 02:11:00,43.6,42.8,28.09,NNW,341,0.0,0.0,97,0.00,,---,0.00,VWS V14.01,2013-08-10 07:11:00,
2013-08-10 02:16:00,43.5,42.7,28.09,NNW,341,0.0,0.0,97,0.00,,---,0.00,VWS V14.01,2013-08-10 07:16:00,
2013-08-10 02:21:00,43.4,42.6,28.09,NNW,341,0.0,0.0,97,0.00,,---,0.00,VWS V14.01,2013-08-10 07:21:00,
2013-08-10 02:26:00,43.2,42.4,28.09,NNW,341,0.0,0.0,97,0.00,,---,0.00,VWS V14.01,2013-08-10 07:26:00,
2013-08-10 02:32:00,43.1,42.3,28.09,NNW,341,0.0,0.0,97,0.00,,---,0.00,VWS V14.01,2013-08-10 07:32:00,
2013-08-10 02:37:00,43.2,42.4,28.09,NNW,341,0.0,0.0,97,0.00,,---,0.00,VWS V14.01,2013-08-10 07:37:00,
2013-08-10 02:42:00,43.5,42.7,28.09,NNW,341,0.0,0.0,97,0.00,,---,0.00,VWS V14.01,2013-08-10 07:42:00,
2013-08-10 02:47:00,43.7,42.9,28.10,NNW,341,0.0,0.0,97,0.00,,---,0.00,VWS V14.01,2013-08-10 07:47:00,
2013-08-10 02:52:00,43.6,42.8,28.10,NNW,341,0.0,0.0,97,0.00,,---,0.00,VWS V14.01,2013-08-10 07:52:00,
2013-08-10 02:58:00,43.4,42.6,28.10,NNW,341,0.0,0.0,97,0.00,,---,0.00,VWS V14.01,2013-08-10 07:58:00,
2013-08-10 03:03:00,43.2,42.4,28.10,NNW,341,0.0,0.0,97,0.00,,---,0.00,VWS V14.01,2013-08-10 08:03:00,
2013-08-10 03:08:00,43.0,42.2,28.10,NNW,341,0.0,0.0,97,0.00,,---,0.00,VWS V14.01,2013-08-10 08:08:00,
2013-08-10 03:13:00,42.8,42.0,28.10,NNW,341,0.0,0.0,97,0.00,,---,0.00,VWS V14.01,2013-08-10 08:13:00,
2013-08-10 03:18:00,42.6,41.8,28.10,NNW,341,0.0,0.0,97,0.00,,---,0.00,VWS V14.01,2013-08-10 08:18:00,
2013-08-10 03:23:00,42.7,41.9,28.10,NNW,341,0.0,0.0,97,0.00,,---,0.00,VWS V14.01,2013-08-10 08:23:00,
2013-08-10 03:28:00,43.0,42.2,28.10,NNW,341,0.0,0.0,97,0.00,,---,0.00,VWS V14.01,2013-08-10 08:28:00,
2013-08-10 03:33:00,43.3,42.5,28.10,NNW,341,0.0,0.0,97,0.00,,---,0.00,VWS V14.01,2013-08-10 08:33:00,
2013-08-10 03:38:00,43.3,42.5,28.10,NNW,341,0.0,0.0,97,0.00,,---,0.00,VWS V14.01,2013-08-10 08:38:00,
2013-08-10 03:44:00,43.4,42.6,28.10,NNW,341,0.0,0.0,97,0.00,,---,0.00,VWS V14.01,2013-08-10 08:44:00,
2013-08-10 03:49:00,43.3,42.5,28.10,NNW,341,0.0,0.0,97,0.00,,---,0.00,VWS V14.01,2013-08-10 08:49:00,
2013-08-10 03:54:00,43.4,42.6,28.10,NNW,341,0.0,0.0,97,0.00,,---,0.00,VWS V14.01,2013-08-10 08:54:00,
2013-08-10 03:59:00,43.3,42.5,28.10,NNW,341,0.0,0.0,97,0.00,,---,0.00,VWS V14.01,2013-08-10 08:59:00,
2013-08-10 04:04:00,43.1,42.3,28.10,NNW,341,0.0,0.0,97,0.00,,---,0.00,VWS V14.01,2013-08-10 09:04:00,
2013-08-10 04:09:00,43.1,42.3,28.10,NNW,341,0.0,0.0,97,0.00,,---,0.00,VWS V14.01,2013-08-10 09:09:00,
2013-08-10 04:14:00,43.1,42.3,28.10,NNW,341,0.0,0.0,97,0.00,,---,0.00,VWS V14.01,2013-08-10 09:14:00,
2013-08-10 04:20:00,43.0,42.2,28.10,NNW,341,0.0,0.0,97,0.00,,---,0.00,VWS V14.01,2013-08-10 09:20:00,
2013-08-10 04:25:00,42.9,42.1,28.10,NNW,341,0.0,0.0,97,0.00,,---,0.00,VWS V14.01,2013-08-10 09:25:00,
2013-08-10 04:30:00,42.9,42.1,28.10,NNW,341,0.0,0.0,97,0.00,,---,0.00,VWS V14.01,2013-08-10 09:30:00,
2013-08-10 04:35:00,42.8,42.0,28.10,NNW,341,0.0,0.0,97,0.00,,---,0.00,VWS V14.01,2013-08-10 09:35:00,
2013-08-10 04:41:00,42.7,41.9,28.10,NNW,341,0.0,0.0,97,0.00,,---,0.00,VWS V14.01,2013-08-10 09:41:00,
2013-08-10 04:46:00,42.7,41.9,28.10,NNW,341,0.0,0.0,97,0.00,,---,0.00,VWS V14.01,2013-08-10 09:46:00,
2013-08-10 04:51:00,42.5,41.7,28.11,NNW,341,0.0,0.0,97,0.00,,---,0.00,VWS V14.01,2013-08-10 09:51:00,
2013-08-10 04:56:00,42.4,41.6,28.11,NNW,341,0.0,0.0,97,0.00,,---,0.00,VWS V14.01,2013-08-10 09:56:00,
2013-08-10 05:01:00,42.5,41.7,28.11,NNW,341,0.0,0.0,97,0.00,,---,0.00,VWS V14.01,2013-08-10 10:01:00,
2013-08-10 05:06:00,42.6,41.8,28.11,NNW,341,0.0,0.0,97,0.00,,---,0.00,VWS V14.01,2013-08-10 10:06:00,
2013-08-10 05:11:00,42.7,41.9,28.11,NNW,341,0.0,0.0,97,0.00,,---,0.00,VWS V14.01,2013-08-10 10:11:00,
2013-08-10 05:16:00,42.7,41.9,28.10,NNW,341,0.0,0.0,97,0.00,,---,0.00,VWS V14.01,2013-08-10 10:16:00,
2013-08-10 05:21:00,42.9,42.1,28.10,NNW,341,0.0,0.0,97,0.00,,---,0.00,VWS V14.01,2013-08-10 10:21:00,
2013-08-10 05:27:00,42.8,42.0,28.10,NNW,341,0.0,0.0,97,0.00,,---,0.00,VWS V14.01,2013-08-10 10:27:00,
2013-08-10 05:32:00,42.7,41.9,28.11,NNW,341,0.0,0.0,97,0.00,,---,0.00,VWS V14.01,2013-08-10 10:32:00,
2013-08-10 05:37:00,42.4,41.6,28.11,NNW,341,0.0,0.0,97,0.00,,---,0.00,VWS V14.01,2013-08-10 10:37:00,
2013-08-10 05:43:00,42.3,41.5,28.11,NNW,341,0.0,0.0,97,0.00,,---,0.00,VWS V14.01,2013-08-10 10:43:00,
2013-08-10 05:48:00,42.2,41.4,28.11,NNW,341,0.0,0.0,97,0.00,,---,0.00,VWS V14.01,2013-08-10 10:48:00,
2013-08-10 05:53:00,42.3,41.5,28.11,NNW,341,0.0,0.0,97,0.00,,---,0.00,VWS V14.01,2013-08-10 10:53:00,
2013-08-10 05:58:00,42.3,41.5,28.11,NNW,341,0.0,0.0,97,0.00,,---,0.00,VWS V14.01,2013-08-10 10:58:00,
2013-08-10 06:04:00,42.3,41.5,28.11,NNW,341,0.0,0.0,97,0.00,,---,0.00,VWS V14.01,2013-08-10 11:04:00,
2013-08-10 06:09:00,42.2,41.4,28.11,NNW,341,0.0,0.0,97,0.00,,---,0.00,VWS V14.01,2013-08-10 11:09:00,
2013-08-10 06:14:00,42.3,41.5,28.11,NNW,341,0.0,0.0,97,0.00,,---,0.00,VWS V14.01,2013-08-10 11:14:00,
2013-08-10 06:19:00,42.5,41.7,28.11,NNW,341,0.0,0.0,97,0.00,,---,0.00,VWS V14.01,2013-08-10 11:19:00,
2013-08-10 06:24:00,42.7,41.9,28.11,NNW,341,0.0,0.0,97,0.00,,---,0.00,VWS V14.01,2013-08-10 11:24:00,
2013-08-10 06:29:00,43.0,42.2,28.11,NNW,341,0.0,0.0,97,0.00,,---,0.00,VWS V14.01,2013-08-10 11:29:00,
2013-08-10 06:35:00,43.4,42.6,28.12,NNW,341,0.0,0.0,97,0.00,,---,0.00,VWS V14.01,2013-08-10 11:35:00,
2013-08-10 06:40:00,43.9,43.4,28.12,NNW,341,0.0,0.0,98,0.00,,---,0.00,VWS V14.01,2013-08-10 11:40:00,
2013-08-10 06:45:00,44.4,43.6,28.12,NNW,341,0.0,0.0,97,0.00,,---,0.00,VWS V14.01,2013-08-10 11:45:00,
2013-08-10 06:50:00,44.9,44.1,28.12,NNW,341,0.0,0.0,97,0.00,,---,0.00,VWS V14.01,2013-08-10 11:50:00,
2013-08-10 06:55:00,45.4,44.9,28.12,NNW,341,0.0,0.0,98,0.00,,---,0.00,VWS V14.01,2013-08-10 11:55:00,
2013-08-10 07:01:00,45.8,45.3,28.12,NNW,341,0.0,0.0,98,0.00,,---,0.00,VWS V14.01,2013-08-10 12:01:00,
2013-08-10 07:06:00,46.5,46.0,28.12,NNW,341,0.0,0.0,98,0.00,,---,0.00,VWS V14.01,2013-08-10 12:06:00,
2013-08-10 07:11:00,46.9,46.4,28.12,NNW,341,0.0,0.0,98,0.00,,---,0.00,VWS V14.01,2013-08-10 12:11:00,
2013-08-10 07:16:00,47.5,47.0,28.12,NNW,341,0.0,0.0,98,0.00,,---,0.00,VWS V14.01,2013-08-10 12:16:00,
2013-08-10 07:21:00,48.2,47.7,28.12,NNW,341,0.0,0.0,98,0.00,,---,0.00,VWS V14.01,2013-08-10 12:21:00,
2013-08-10 07:26:00,49.0,48.5,28.12,NNW,341,0.0,0.0,98,0.00,,---,0.00,VWS V14.01,2013-08-10 12:26:00,
2013-08-10 07:32:00,49.7,49.2,28.13,NNW,341,0.0,0.0,98,0.00,,---,0.00,VWS V14.01,2013-08-10 12:32:00,
2013-08-10 07:37:00,50.9,50.4,28.13,NNW,341,0.0,0.0,98,0.00,,---,0.00,VWS V14.01,2013-08-10 12:37:00,
2013-08-10 07:42:00,51.3,50.8,28.13,NNW,341,0.0,0.0,98,0.00,,---,0.00,VWS V14.01,2013-08-10 12:42:00,
2013-08-10 07:47:00,51.4,50.9,28.13,NNW,341,0.0,0.0,98,0.00,,---,0.00,VWS V14.01,2013-08-10 12:47:00,
2013-08-10 07:52:00,52.0,51.5,28.13,NNW,341,0.0,0.0,98,0.00,,---,0.00,VWS V14.01,2013-08-10 12:52:00,
2013-08-10 07:57:00,52.9,52.3,28.13,NNW,341,0.0,1.0,98,0.00,,---,0.00,VWS V14.01,2013-08-10 12:57:00,
2013-08-10 08:03:00,53.3,52.8,28.13,NNW,341,0.0,1.0,98,0.00,,---,0.00,VWS V14.01,2013-08-10 13:03:00,
2013-08-10 08:08:00,53.6,53.0,28.13,NW,313,4.0,5.0,98,0.00,,---,0.00,VWS V14.01,2013-08-10 13:08:00,
2013-08-10 08:13:00,53.8,53.2,28.13,NW,307,2.0,3.0,98,0.00,,---,0.00,VWS V14.01,2013-08-10 13:13:00,
2013-08-10 08:18:00,54.2,53.7,28.13,NW,307,0.0,1.0,98,0.00,,---,0.00,VWS V14.01,2013-08-10 13:18:00,
2013-08-10 08:24:00,54.8,54.2,28.13,NW,317,0.0,1.0,98,0.00,,---,0.00,VWS V14.01,2013-08-10 13:24:00,
2013-08-10 08:29:00,54.9,54.3,28.13,West,274,0.0,6.0,98,0.00,,---,0.00,VWS V14.01,2013-08-10 13:29:00,
2013-08-10 08:34:00,55.1,54.5,28.13,WNW,292,1.0,3.0,98,0.00,,---,0.00,VWS V14.01,2013-08-10 13:34:00,
2013-08-10 08:39:00,55.8,55.2,28.13,WNW,301,3.0,4.0,98,0.00,,---,0.00,VWS V14.01,2013-08-10 13:39:00,
2013-08-10 08:44:00,56.4,55.6,28.13,West,281,1.0,2.0,97,0.00,,---,0.00,VWS V14.01,2013-08-10 13:44:00,
2013-08-10 08:50:00,57.2,55.5,28.13,WNW,301,4.0,4.0,94,0.00,,---,0.00,VWS V14.01,2013-08-10 13:50:00,
2013-08-10 08:55:00,57.5,54.3,28.13,NNW,331,3.0,3.0,89,0.00,,---,0.00,VWS V14.01,2013-08-10 13:55:00,
2013-08-10 09:00:00,57.8,54.0,28.13,NNW,341,1.0,7.0,87,0.00,,---,0.00,VWS V14.01,2013-08-10 14:00:00,
2013-08-10 09:05:00,58.6,54.8,28.13,NW,325,2.0,4.0,87,0.00,,---,0.00,VWS V14.01,2013-08-10 14:05:00,
2013-08-10 09:10:00,58.5,53.7,28.13,WSW,240,2.0,6.0,84,0.00,,---,0.00,VWS V14.01,2013-08-10 14:10:00,
2013-08-10 09:15:00,58.1,53.0,28.13,WNW,296,2.0,6.0,83,0.00,,---,0.00,VWS V14.01,2013-08-10 14:15:00,
2013-08-10 09:20:00,58.1,53.3,28.13,WNW,283,4.0,5.0,84,0.00,,---,0.00,VWS V14.01,2013-08-10 14:20:00,
2013-08-10 09:25:00,57.7,53.5,28.13,WNW,297,3.0,3.0,86,0.00,,---,0.00,VWS V14.01,2013-08-10 14:25:00,
2013-08-10 09:30:00,57.7,53.2,28.13,NW,308,1.0,3.0,85,0.00,,---,0.00,VWS V14.01,2013-08-10 14:30:00,
2013-08-10 09:35:00,57.8,53.3,28.13,WNW,291,1.0,1.0,85,0.00,,---,0.00,VWS V14.01,2013-08-10 14:35:00,
2013-08-10 09:40:00,58.6,53.5,28.13,NNW,343,8.0,8.0,83,0.00,,---,0.00,VWS V14.01,2013-08-10 14:40:00,
2013-08-10 09:46:00,58.9,53.8,28.13,North,355,4.0,4.0,83,0.00,,---,0.00,VWS V14.01,2013-08-10 14:46:00,
2013-08-10 09:51:00,58.4,53.3,28.13,WNW,288,2.0,4.0,83,0.00,,---,0.00,VWS V14.01,2013-08-10 14:51:00,
2013-08-10 09:56:00,57.9,52.5,28.13,NNW,333,5.0,8.0,82,0.00,,---,0.00,VWS V14.01,2013-08-10 14:56:00,
2013-08-10 10:01:00,58.2,53.4,28.13,NW,318,3.0,3.0,84,0.00,,---,0.00,VWS V14.01,2013-08-10 15:01:00,
2013-08-10 10:07:00,59.0,53.5,28.13,NW,324,2.0,2.0,82,0.00,,---,0.00,VWS V14.01,2013-08-10 15:07:00,
2013-08-10 10:12:00,60.2,53.3,28.13,NW,309,1.0,3.0,78,0.00,,---,0.00,VWS V14.01,2013-08-10 15:12:00,
2013-08-10 10:17:00,60.0,53.1,28.14,NNW,332,5.0,8.0,78,0.00,,---,0.00,VWS V14.01,2013-08-10 15:17:00,
2013-08-10 10:22:00,59.7,52.8,28.14,WNW,298,4.0,9.0,78,0.00,,---,0.00,VWS V14.01,2013-08-10 15:22:00,
2013-08-10 10:27:00,59.6,52.7,28.14,NNW,337,1.0,4.0,78,0.00,,---,0.00,VWS V14.01,2013-08-10 15:27:00,
2013-08-10 10:33:00,59.7,52.5,28.14,WNW,298,4.0,4.0,77,0.00,,---,0.00,VWS V14.01,2013-08-10 15:33:00,
2013-08-10 10:38:00,60.5,53.3,28.14,NNW,344,0.0,4.0,77,0.00,,---,0.00,VWS V14.01,2013-08-10 15:38:00,
2013-08-10 10:43:00,60.9,53.7,28.14,WSW,257,1.0,3.0,77,0.00,,---,0.00,VWS V14.01,2013-08-10 15:43:00,
2013-08-10 10:48:00,61.2,52.5,28.14,WNW,290,6.0,6.0,73,0.00,,---,0.00,VWS V14.01,2013-08-10 15:48:00,
2013-08-10 10:53:00,60.8,52.8,28.14,WNW,291,3.0,4.0,75,0.00,,---,0.00,VWS V14.01,2013-08-10 15:53:00,
2013-08-10 10:59:00,60.2,52.3,28.14,WNW,286,2.0,3.0,75,0.00,,---,0.00,VWS V14.01,2013-08-10 15:59:00,
2013-08-10 11:04:00,60.7,52.7,28.13,WNW,284,1.0,3.0,75,0.00,,---,0.00,VWS V14.01,2013-08-10 16:04:00,
2013-08-10 11:09:00,61.4,53.0,28.13,North,355,3.0,5.0,74,0.00,,---,0.00,VWS V14.01,2013-08-10 16:09:00,
2013-08-10 11:14:00,61.5,53.2,28.13,NW,323,2.0,2.0,74,0.00,,---,0.00,VWS V14.01,2013-08-10 16:14:00,
2013-08-10 11:19:00,62.2,52.7,28.14,North,5,3.0,5.0,71,0.00,,---,0.00,VWS V14.01,2013-08-10 16:19:00,
2013-08-10 11:24:00,61.7,51.8,28.14,WNW,288,4.0,6.0,70,0.00,,---,0.00,VWS V14.01,2013-08-10 16:24:00,
2013-08-10 11:29:00,62.0,52.5,28.14,West,275,0.0,6.0,71,0.00,,---,0.00,VWS V14.01,2013-08-10 16:29:00,
2013-08-10 11:34:00,63.3,53.0,28.13,WNW,294,2.0,7.0,69,0.00,,---,0.00,VWS V14.01,2013-08-10 16:34:00,
2013-08-10 11:39:00,63.8,52.7,28.13,North,360,1.0,4.0,67,0.00,,---,0.00,VWS V14.01,2013-08-10 16:39:00,
2013-08-10 11:45:00,63.3,52.2,28.13,NNW,330,0.0,4.0,67,0.00,,---,0.00,VWS V14.01,2013-08-10 16:45:00,
2013-08-10 11:50:00,63.4,52.3,28.12,North,9,0.0,3.0,67,0.00,,---,0.00,VWS V14.01,2013-08-10 16:50:00,
2013-08-10 11:55:00,64.4,52.4,28.12,NNE,15,3.0,3.0,65,0.00,,---,0.00,VWS V14.01,2013-08-10 16:55:00,
2013-08-10 12:00:00,64.6,51.7,28.12,WNW,288,0.0,2.0,63,0.00,,---,0.00,VWS V14.01,2013-08-10 17:00:00,
2013-08-10 12:05:00,64.4,51.5,28.12,NW,312,0.0,2.0,63,0.00,,---,0.00,VWS V14.01,2013-08-10 17:05:00,
2013-08-10 12:11:00,64.6,52.2,28.12,West,270,1.0,5.0,64,0.00,,---,0.00,VWS V14.01,2013-08-10 17:11:00,
2013-08-10 12:16:00,64.9,53.3,28.12,SW,221,1.0,1.0,66,0.00,,---,0.00,VWS V14.01,2013-08-10 17:16:00,
2013-08-10 12:21:00,65.9,52.1,28.12,NNE,13,0.0,0.0,61,0.00,,---,0.00,VWS V14.01,2013-08-10 17:21:00,
2013-08-10 12:26:00,65.6,50.9,28.12,NNW,331,4.0,4.0,59,0.00,,---,0.00,VWS V14.01,2013-08-10 17:26:00,
2013-08-10 12:31:00,65.6,51.8,28.12,WNW,290,0.0,3.0,61,0.00,,---,0.00,VWS V14.01,2013-08-10 17:31:00,
2013-08-10 12:37:00,65.9,50.7,28.12,NNW,348,7.0,7.0,58,0.00,,---,0.00,VWS V14.01,2013-08-10 17:37:00,
2013-08-10 12:42:00,65.5,50.3,28.12,WNW,300,1.0,1.0,58,0.00,,---,0.00,VWS V14.01,2013-08-10 17:42:00,
2013-08-10 12:47:00,65.2,50.1,28.12,North,9,0.0,3.0,58,0.00,,---,0.00,VWS V14.01,2013-08-10 17:47:00,
2013-08-10 12:53:00,66.2,52.4,28.12,NNW,346,3.0,4.0,61,0.00,,---,0.00,VWS V14.01,2013-08-10 17:53:00,
2013-08-10 12:58:00,66.4,51.2,28.12,WNW,294,4.0,4.0,58,0.00,,---,0.00,VWS V14.01,2013-08-10 17:58:00,
2013-08-10 13:03:00,66.5,51.8,28.12,NW,326,3.0,4.0,59,0.00,,---,0.00,VWS V14.01,2013-08-10 18:03:00,
2013-08-10 13:08:00,66.3,51.6,28.12,NNW,331,2.0,4.0,59,0.00,,---,0.00,VWS V14.01,2013-08-10 18:08:00,
2013-08-10 13:14:00,66.5,50.8,28.12,NW,313,5.0,5.0,57,0.00,,---,0.00,VWS V14.01,2013-08-10 18:14:00,
2013-08-10 13:19:00,66.8,49.6,28.12,West,281,3.0,7.0,54,0.00,,---,0.00,VWS V14.01,2013-08-10 18:19:00,
2013-08-10 13:24:00,66.3,51.1,28.12,SW,234,2.0,4.0,58,0.00,,---,0.00,VWS V14.01,2013-08-10 18:24:00,
2013-08-10 13:29:00,67.4,51.7,28.12,SSW,201,1.0,1.0,57,0.00,,---,0.00,VWS V14.01,2013-08-10 18:29:00,
2013-08-10 13:34:00,67.7,51.0,28.12,NNW,341,3.0,6.0,55,0.00,,---,0.00,VWS V14.01,2013-08-10 18:34:00,
2013-08-10 13:40:00,67.9,50.2,28.12,West,281,5.0,8.0,53,0.00,,---,0.00,VWS V14.01,2013-08-10 18:40:00,
2013-08-10 13:45:00,67.8,52.0,28.12,West,259,2.0,3.0,57,0.00,,---,0.00,VWS V14.01,2013-08-10 18:45:00,
2013-08-10 13:50:00,67.9,50.2,28.12,NW,308,0.0,1.0,53,0.00,,---,0.00,VWS V14.01,2013-08-10 18:50:00,
2013-08-10 13:55:00,67.8,49.0,28.12,WNW,285,1.0,4.0,51,0.00,,---,0.00,VWS V14.01,2013-08-10 18:55:00,
2013-08-10 14:00:00,67.4,50.2,28.12,NW,307,2.0,4.0,54,0.00,,---,0.00,VWS V14.01,2013-08-10 19:00:00,
2013-08-10 14:06:00,67.2,50.5,28.12,NW,307,0.0,3.0,55,0.00,,---,0.00,VWS V14.01,2013-08-10 19:06:00,
2013-08-10 14:11:00,67.7,50.5,28.12,North,355,3.0,3.0,54,0.00,,---,0.00,VWS V14.01,2013-08-10 19:11:00,
2013-08-10 14:16:00,67.8,52.0,28.12,NNW,344,1.0,1.0,57,0.00,,---,0.00,VWS V14.01,2013-08-10 19:16:00,
2013-08-10 14:21:00,68.1,52.3,28.12,NNE,15,6.0,8.0,57,0.00,,---,0.00,VWS V14.01,2013-08-10 19:21:00,
2013-08-10 14:26:00,67.9,50.2,28.12,North,360,2.0,4.0,53,0.00,,---,0.00,VWS V14.01,2013-08-10 19:26:00,
2013-08-10 14:31:00,68.7,50.9,28.12,NNW,329,2.0,2.0,53,0.00,,---,0.00,VWS V14.01,2013-08-10 19:31:00,
2013-08-10 14:36:00,68.8,50.0,28.11,West,269,3.0,3.0,51,0.00,,---,0.00,VWS V14.01,2013-08-10 19:36:00,
2013-08-10 14:41:00,68.5,49.7,28.11,West,276,1.0,3.0,51,0.00,,---,0.00,VWS V14.01,2013-08-10 19:41:00,
2013-08-10 14:46:00,67.7,50.5,28.11,WNW,293,1.0,4.0,54,0.00,,---,0.00,VWS V14.01,2013-08-10 19:46:00,
2013-08-10 14:52:00,68.0,50.2,28.11,WNW,290,0.0,1.0,53,0.00,,---,0.00,VWS V14.01,2013-08-10 19:52:00,
2013-08-10 14:57:00,68.5,50.2,28.11,NW,310,1.0,2.0,52,0.00,,---,0.00,VWS V14.01,2013-08-10 19:57:00,
2013-08-10 15:02:00,68.4,50.6,28.11,North,355,7.0,7.0,53,0.00,,---,0.00,VWS V14.01,2013-08-10 20:02:00,
2013-08-10 15:08:00,67.6,48.8,28.11,NNW,345,2.0,4.0,51,0.00,,---,0.00,VWS V14.01,2013-08-10 20:08:00,
2013-08-10 15:13:00,67.0,49.8,28.11,NNW,330,2.0,4.0,54,0.00,,---,0.00,VWS V14.01,2013-08-10 20:13:00,
2013-08-10 15:18:00,66.8,48.6,28.11,NNW,336,0.0,0.0,52,0.00,,---,0.00,VWS V14.01,2013-08-10 20:18:00,
2013-08-10 15:23:00,66.0,49.9,28.11,NNW,341,2.0,2.0,56,0.00,,---,0.00,VWS V14.01,2013-08-10 20:23:00,
2013-08-10 15:28:00,66.0,50.3,28.11,North,355,2.0,2.0,57,0.00,,---,0.00,VWS V14.01,2013-08-10 20:28:00,
2013-08-10 15:34:00,67.3,50.6,28.10,NNW,336,1.0,4.0,55,0.00,,---,0.00,VWS V14.01,2013-08-10 20:34:00,
2013-08-10 15:39:00,68.1,49.8,28.10,West,280,4.0,4.0,52,0.00,,---,0.00,VWS V14.01,2013-08-10 20:39:00,
2013-08-10 15:44:00,67.5,49.3,28.10,NW,313,1.0,1.0,52,0.00,,---,0.00,VWS V14.01,2013-08-10 20:44:00,
2013-08-10 15:49:00,66.7,50.5,28.10,NW,308,0.0,0.0,56,0.00,,---,0.00,VWS V14.01,2013-08-10 20:49:00,
2013-08-10 15:54:00,67.4,50.2,28.10,West,277,0.0,4.0,54,0.00,,---,0.00,VWS V14.01,2013-08-10 20:54:00,
2013-08-10 16:00:00,68.3,50.0,28.10,West,281,0.0,1.0,52,0.00,,---,0.00,VWS V14.01,2013-08-10 21:00:00,
2013-08-10 16:05:00,68.2,50.9,28.10,WNW,292,1.0,1.0,54,0.00,,---,0.00,VWS V14.01,2013-08-10 21:05:00,
2013-08-10 16:10:00,68.6,49.8,28.10,North,355,6.0,7.0,51,0.00,,---,0.00,VWS V14.01,2013-08-10 21:10:00,
2013-08-10 16:15:00,68.9,51.1,28.10,NW,310,4.0,4.0,53,0.00,,---,0.00,VWS V14.01,2013-08-10 21:15:00,
2013-08-10 16:20:00,69.3,51.5,28.09,West,268,0.0,1.0,53,0.00,,---,0.00,VWS V14.01,2013-08-10 21:20:00,
2013-08-10 16:25:00,70.0,51.1,28.09,SW,229,2.0,4.0,51,0.00,,---,0.00,VWS V14.01,2013-08-10 21:25:00,
2013-08-10 16:31:00,69.9,49.3,28.09,NW,321,0.0,4.0,48,0.00,,---,0.00,VWS V14.01,2013-08-10 21:31:00,
2013-08-10 16:36:00,69.6,50.2,28.09,WNW,296,3.0,4.0,50,0.00,,---,0.00,VWS V14.01,2013-08-10 21:36:00,
2013-08-10 16:41:00,69.7,50.2,28.09,West,263,6.0,8.0,50,0.00,,---,0.00,VWS V14.01,2013-08-10 21:41:00,
2013-08-10 16:46:00,69.3,50.9,28.09,NW,321,1.0,1.0,52,0.00,,---,0.00,VWS V14.01,2013-08-10 21:46:00,
2013-08-10 16:51:00,69.1,50.2,28.09,WNW,292,0.0,0.0,51,0.00,,---,0.00,VWS V14.01,2013-08-10 21:51:00,
2013-08-10 16:56:00,69.3,49.9,28.09,West,269,6.0,6.0,50,0.00,,---,0.00,VWS V14.01,2013-08-10 21:56:00,
2013-08-10 17:02:00,69.6,49.6,28.08,WNW,287,0.0,1.0,49,0.00,,---,0.00,VWS V14.01,2013-08-10 22:02:00,
2013-08-10 17:07:00,70.0,52.1,28.08,West,274,2.0,4.0,53,0.00,,---,0.00,VWS V14.01,2013-08-10 22:07:00,
2013-08-10 17:12:00,70.1,50.1,28.08,West,264,0.0,2.0,49,0.00,,---,0.00,VWS V14.01,2013-08-10 22:12:00,
2013-08-10 17:17:00,69.7,49.2,28.08,West,277,1.0,3.0,48,0.00,,---,0.00,VWS V14.01,2013-08-10 22:17:00,
2013-08-10 17:22:00,69.1,51.3,28.08,West,272,0.0,1.0,53,0.00,,---,0.00,VWS V14.01,2013-08-10 22:22:00,
2013-08-10 17:28:00,69.4,51.5,28.08,West,262,0.0,1.0,53,0.00,,---,0.00,VWS V14.01,2013-08-10 22:28:00,
2013-08-10 17:33:00,69.1,49.2,28.08,WNW,300,0.0,5.0,49,0.00,,---,0.00,VWS V14.01,2013-08-10 22:33:00,
2013-08-10 17:38:00,68.6,50.8,28.08,SW,221,2.0,5.0,53,0.00,,---,0.00,VWS V14.01,2013-08-10 22:38:00,
2013-08-10 17:43:00,68.5,49.7,28.08,SSW,212,0.0,5.0,51,0.00,,---,0.00,VWS V14.01,2013-08-10 22:43:00,
2013-08-10 17:48:00,68.7,51.9,28.07,SW,227,0.0,2.0,55,0.00,,---,0.00,VWS V14.01,2013-08-10 22:48:00,
2013-08-10 17:53:00,68.8,50.5,28.07,West,281,4.0,4.0,52,0.00,,---,0.00,VWS V14.01,2013-08-10 22:53:00,
2013-08-10 17:58:00,68.8,51.5,28.07,WSW,250,4.0,4.0,54,0.00,,---,0.00,VWS V14.01,2013-08-10 22:58:00,
2013-08-10 18:03:00,68.5,51.2,28.07,WSW,254,1.0,3.0,54,0.00,,---,0.00,VWS V14.01,2013-08-10 23:03:00,
2013-08-10 18:09:00,68.4,50.1,28.07,SW,228,0.0,1.0,52,0.00,,---,0.00,VWS V14.01,2013-08-10 23:09:00,
2013-08-10 18:14:00,68.6,52.3,28.07,WSW,251,1.0,4.0,56,0.00,,---,0.00,VWS V14.01,2013-08-10 23:14:00,
2013-08-10 18:19:00,68.1,50.3,28.07,West,263,3.0,5.0,53,0.00,,---,0.00,VWS V14.01,2013-08-10 23:19:00,
2013-08-10 18:24:00,67.9,50.2,28.07,West,280,0.0,1.0,53,0.00,,---,0.00,VWS V14.01,2013-08-10 23:24:00,
2013-08-10 18:29:00,68.0,50.8,28.07,West,260,3.0,4.0,54,0.00,,---,0.00,VWS V14.01,2013-08-10 23:29:00,
2013-08-10 18:35:00,68.3,51.5,28.07,WNW,284,2.0,2.0,55,0.00,,---,0.00,VWS V14.01,2013-08-10 23:35:00,
2013-08-10 18:40:00,68.3,51.5,28.07,WSW,249,4.0,7.0,55,0.00,,---,0.00,VWS V14.01,2013-08-10 23:40:00,
2013-08-10 18:45:00,68.0,51.2,28.07,West,269,1.0,5.0,55,0.00,,---,0.00,VWS V14.01,2013-08-10 23:45:00,
2013-08-10 18:50:00,68.1,51.8,28.07,West,269,2.0,3.0,56,0.00,,---,0.00,VWS V14.01,2013-08-10 23:50:00,
2013-08-10 18:55:00,68.2,51.9,28.07,WSW,258,0.0,3.0,56,0.00,,---,0.00,VWS V14.01,2013-08-10 23:55:00,
2013-08-10 19:00:00,67.9,52.1,28.07,WSW,257,1.0,2.0,57,0.00,,---,0.00,VWS V14.01,2013-08-11 00:00:00,
2013-08-10 19:06:00,67.5,50.8,28.07,West,263,2.0,2.0,55,0.00,,---,0.00,VWS V14.01,2013-08-11 00:06:00,
2013-08-10 19:11:00,66.9,51.2,28.07,West,264,0.0,2.0,57,0.00,,---,0.00,VWS V14.01,2013-08-11 00:11:00,
2013-08-10 19:16:00,66.5,50.8,28.07,WNW,288,2.0,5.0,57,0.00,,---,0.00,VWS V14.01,2013-08-11 00:16:00,
2013-08-10 19:21:00,66.3,52.0,28.07,WNW,284,3.0,3.0,60,0.00,,---,0.00,VWS V14.01,2013-08-11 00:21:00,
2013-08-10 19:26:00,66.1,51.4,28.07,SW,229,0.0,2.0,59,0.00,,---,0.00,VWS V14.01,2013-08-11 00:26:00,
2013-08-10 19:32:00,65.7,51.0,28.07,WSW,238,1.0,3.0,59,0.00,,---,0.00,VWS V14.01,2013-08-11 00:32:00,
2013-08-10 19:37:00,65.3,51.1,28.07,WSW,237,0.0,1.0,60,0.00,,---,0.00,VWS V14.01,2013-08-11 00:37:00,
2013-08-10 19:42:00,65.0,51.2,28.07,WSW,238,0.0,1.0,61,0.00,,---,0.00,VWS V14.01,2013-08-11 00:42:00,
2013-08-10 19:47:00,64.6,50.9,28.06,WSW,238,0.0,0.0,61,0.00,,---,0.00,VWS V14.01,2013-08-11 00:47:00,
2013-08-10 19:52:00,64.1,50.8,28.06,WSW,238,0.0,0.0,62,0.00,,---,0.00,VWS V14.01,2013-08-11 00:52:00,
2013-08-10 19:57:00,63.5,50.7,28.06,WSW,238,0.0,0.0,63,0.00,,---,0.00,VWS V14.01,2013-08-11 00:57:00,
2013-08-10 20:03:00,62.8,50.5,28.07,WSW,238,0.0,0.0,64,0.00,,---,0.00,VWS V14.01,2013-08-11 01:03:00,
2013-08-10 20:08:00,62.4,50.5,28.07,WSW,238,0.0,0.0,65,0.00,,---,0.00,VWS V14.01,2013-08-11 01:08:00,
2013-08-10 20:13:00,62.0,50.9,28.07,WSW,238,0.0,0.0,67,0.00,,---,0.00,VWS V14.01,2013-08-11 01:13:00,
2013-08-10 20:18:00,61.7,51.4,28.07,WSW,238,0.0,0.0,69,0.00,,---,0.00,VWS V14.01,2013-08-11 01:18:00,
2013-08-10 20:23:00,61.3,51.8,28.07,WSW,238,0.0,0.0,71,0.00,,---,0.00,VWS V14.01,2013-08-11 01:23:00,
2013-08-10 20:28:00,60.9,51.5,28.07,WSW,238,0.0,0.0,71,0.00,,---,0.00,VWS V14.01,2013-08-11 01:28:00,
2013-08-10 20:34:00,60.3,51.6,28.06,WSW,238,0.0,0.0,73,0.00,,---,0.00,VWS V14.01,2013-08-11 01:34:00,
2013-08-10 20:39:00,59.5,51.9,28.06,WSW,238,0.0,0.0,76,0.00,,---,0.00,VWS V14.01,2013-08-11 01:39:00,
2013-08-10 20:44:00,58.7,51.2,28.06,WSW,238,0.0,0.0,76,0.00,,---,0.00,VWS V14.01,2013-08-11 01:44:00,
2013-08-10 20:49:00,57.7,50.9,28.06,WSW,238,0.0,0.0,78,0.00,,---,0.00,VWS V14.01,2013-08-11 01:49:00,
2013-08-10 20:54:00,57.0,50.9,28.06,WSW,238,0.0,0.0,80,0.00,,---,0.00,VWS V14.01,2013-08-11 01:54:00,
2013-08-10 20:59:00,56.4,51.0,28.06,WSW,238,0.0,0.0,82,0.00,,---,0.00,VWS V14.01,2013-08-11 01:59:00,
2013-08-10 21:04:00,55.9,51.1,28.07,WSW,238,0.0,0.0,84,0.00,,---,0.00,VWS V14.01,2013-08-11 02:04:00,
2013-08-10 21:10:00,55.3,51.2,28.07,WSW,238,0.0,0.0,86,0.00,,---,0.00,VWS V14.01,2013-08-11 02:10:00,
2013-08-10 21:15:00,54.8,51.3,28.07,WSW,238,0.0,0.0,88,0.00,,---,0.00,VWS V14.01,2013-08-11 02:15:00,
2013-08-10 21:20:00,54.4,51.2,28.07,WSW,238,0.0,0.0,89,0.00,,---,0.00,VWS V14.01,2013-08-11 02:20:00,
2013-08-10 21:25:00,54.0,51.1,28.07,WSW,238,0.0,0.0,90,0.00,,---,0.00,VWS V14.01,2013-08-11 02:25:00,
2013-08-10 21:30:00,53.6,50.7,28.07,WSW,238,0.0,0.0,90,0.00,,---,0.00,VWS V14.01,2013-08-11 02:30:00,
2013-08-10 21:36:00,53.2,50.7,28.07,WSW,238,0.0,0.0,91,0.00,,---,0.00,VWS V14.01,2013-08-11 02:36:00,
2013-08-10 21:41:00,52.9,50.3,28.07,WSW,238,0.0,0.0,91,0.00,,---,0.00,VWS V14.01,2013-08-11 02:41:00,
2013-08-10 21:46:00,52.6,50.0,28.07,WSW,238,0.0,0.0,91,0.00,,---,0.00,VWS V14.01,2013-08-11 02:46:00,
2013-08-10 21:52:00,52.2,50.0,28.07,WSW,238,0.0,0.0,92,0.00,,---,0.00,VWS V14.01,2013-08-11 02:52:00,
2013-08-10 21:57:00,51.9,49.7,28.07,WSW,238,0.0,0.0,92,0.00,,---,0.00,VWS V14.01,2013-08-11 02:57:00,
2013-08-10 22:02:00,51.4,49.2,28.07,WSW,238,0.0,0.0,92,0.00,,---,0.00,VWS V14.01,2013-08-11 03:02:00,
2013-08-10 22:07:00,51.1,48.9,28.07,WSW,238,0.0,0.0,92,0.00,,---,0.00,VWS V14.01,2013-08-11 03:07:00,
2013-08-10 22:12:00,50.7,48.5,28.07,WSW,238,0.0,0.0,92,0.00,,---,0.00,VWS V14.01,2013-08-11 03:12:00,
2013-08-10 22:18:00,50.4,48.2,28.07,WSW,238,0.0,0.0,92,0.00,,---,0.00,VWS V14.01,2013-08-11 03:18:00,
2013-08-10 22:23:00,50.2,48.3,28.07,WSW,238,0.0,0.0,93,0.00,,---,0.00,VWS V14.01,2013-08-11 03:23:00,
2013-08-10 22:28:00,50.1,48.4,28.07,WSW,238,0.0,0.0,94,0.00,,---,0.00,VWS V14.01,2013-08-11 03:28:00,
2013-08-10 22:33:00,49.9,48.2,28.07,WSW,238,0.0,0.0,94,0.00,,---,0.00,VWS V14.01,2013-08-11 03:33:00,
2013-08-10 22:38:00,49.9,48.5,28.07,WSW,238,0.0,0.0,95,0.00,,---,0.00,VWS V14.01,2013-08-11 03:38:00,
2013-08-10 22:44:00,49.8,48.2,28.07,WSW,238,0.0,0.0,94,0.00,,---,0.00,VWS V14.01,2013-08-11 03:44:00,
2013-08-10 22:49:00,49.6,48.2,28.07,WSW,238,0.0,0.0,95,0.00,,---,0.00,VWS V14.01,2013-08-11 03:49:00,
2013-08-10 22:54:00,49.4,48.0,28.07,WSW,238,0.0,0.0,95,0.00,,---,0.00,VWS V14.01,2013-08-11 03:54:00,
2013-08-10 22:59:00,49.2,47.8,28.07,WSW,238,0.0,0.0,95,0.00,,---,0.00,VWS V14.01,2013-08-11 03:59:00,
2013-08-10 23:01:00,49.1,47.7,28.07,WSW,238,0.0,0.0,95,0.00,,---,0.00,VWS V14.01,2013-08-11 04:01:00,
2013-08-10 23:02:00,49.1,47.7,28.06,WSW,238,0.0,0.0,95,0.00,,---,0.00,VWS V14.01,2013-08-11 04:02:00,
2013-08-10 23:06:00,48.9,47.5,28.06,WSW,238,0.0,0.0,95,0.00,,---,0.00,VWS V14.01,2013-08-11 04:06:00,
2013-08-10 23:11:00,48.8,47.4,28.06,WSW,238,0.0,0.0,95,0.00,,---,0.00,VWS V14.01,2013-08-11 04:11:00,
2013-08-10 23:16:00,48.6,47.2,28.06,WSW,238,0.0,0.0,95,0.00,,---,0.00,VWS V14.01,2013-08-11 04:16:00,
2013-08-10 23:21:00,48.4,47.0,28.06,WSW,238,0.0,0.0,95,0.00,,---,0.00,VWS V14.01,2013-08-11 04:21:00,
2013-08-10 23:26:00,48.2,46.8,28.06,WSW,238,0.0,0.0,95,0.00,,---,0.00,VWS V14.01,2013-08-11 04:26:00,
2013-08-10 23:31:00,48.2,46.8,28.06,WSW,238,0.0,0.0,95,0.00,,---,0.00,VWS V14.01,2013-08-11 04:31:00,
2013-08-10 23:37:00,48.4,47.3,28.06,WSW,238,0.0,0.0,96,0.00,,---,0.00,VWS V14.01,2013-08-11 04:37:00,
2013-08-10 23:42:00,48.5,47.4,28.06,WSW,238,0.0,0.0,96,0.00,,---,0.00,VWS V14.01,2013-08-11 04:42:00,
2013-08-10 23:47:00,48.4,47.3,28.06,WSW,238,0.0,0.0,96,0.00,,---,0.00,VWS V14.01,2013-08-11 04:47:00,
2013-08-10 23:52:00,48.1,47.0,28.06,WSW,238,0.0,0.0,96,0.00,,---,0.00,VWS V14.01,2013-08-11 04:52:00,
2013-08-10 23:57:00,47.8,46.7,28.06,WSW,238,0.0,0.0,96,0.00,,---,0.00,VWS V14.01,2013-08-11 04:57:00,